sensor_id;sensor_type;location;lat;lon;timestamp;P1;durP1;ratioP1;P2;durP2;ratioP2
18804;SDS011;9530;48.930;9.526;2022-11-15T00:01:06;2.90;;;1.50;;
18804;SDS011;9530;48.930;9.526;2022-11-15T00:03:33;2.33;;;1.40;;
18804;SDS011;9530;48.930;9.526;2022-11-15T00:06:01;2.03;;;1.40;;
18804;SDS011;9530;48.930;9.526;2022-11-15T00:08:28;4.70;;;1.47;;
18804;SDS011;9530;48.930;9.526;2022-11-15T00:10:57;2.00;;;1.37;;
18804;SDS011;9530;48.930;9.526;2022-11-15T00:13:25;2.87;;;1.53;;
18804;SDS011;9530;48.930;9.526;2022-11-15T00:15:52;2.93;;;1.73;;
18804;SDS011;9530;48.930;9.526;2022-11-15T00:18:22;2.90;;;1.40;;
18804;SDS011;9530;48.930;9.526;2022-11-15T00:20:49;2.50;;;1.40;;
18804;SDS011;9530;48.930;9.526;2022-11-15T00:23:15;2.63;;;1.60;;
18804;SDS011;9530;48.930;9.526;2022-11-15T00:25:42;2.37;;;1.40;;
18804;SDS011;9530;48.930;9.526;2022-11-15T00:28:11;3.67;;;1.60;;
18804;SDS011;9530;48.930;9.526;2022-11-15T00:30:38;2.73;;;1.40;;
18804;SDS011;9530;48.930;9.526;2022-11-15T00:33:05;1.97;;;1.33;;
18804;SDS011;9530;48.930;9.526;2022-11-15T00:35:33;4.10;;;1.50;;
18804;SDS011;9530;48.930;9.526;2022-11-15T00:38:00;3.63;;;1.60;;
18804;SDS011;9530;48.930;9.526;2022-11-15T00:40:27;1.63;;;1.27;;
18804;SDS011;9530;48.930;9.526;2022-11-15T00:42:54;2.40;;;1.53;;
18804;SDS011;9530;48.930;9.526;2022-11-15T00:45:22;2.87;;;1.50;;
18804;SDS011;9530;48.930;9.526;2022-11-15T00:47:49;3.77;;;1.57;;
18804;SDS011;9530;48.930;9.526;2022-11-15T00:50:17;2.33;;;1.60;;
18804;SDS011;9530;48.930;9.526;2022-11-15T00:52:44;2.53;;;1.43;;
18804;SDS011;9530;48.930;9.526;2022-11-15T00:55:12;3.03;;;1.63;;
18804;SDS011;9530;48.930;9.526;2022-11-15T00:57:40;6.20;;;1.57;;
18804;SDS011;9530;48.930;9.526;2022-11-15T01:00:08;5.10;;;1.63;;
18804;SDS011;9530;48.930;9.526;2022-11-15T01:02:36;3.73;;;1.50;;
18804;SDS011;9530;48.930;9.526;2022-11-15T01:05:04;3.43;;;1.57;;
18804;SDS011;9530;48.930;9.526;2022-11-15T01:07:31;2.53;;;1.70;;
18804;SDS011;9530;48.930;9.526;2022-11-15T01:09:58;2.53;;;1.30;;
18804;SDS011;9530;48.930;9.526;2022-11-15T01:12:25;7.13;;;1.70;;
18804;SDS011;9530;48.930;9.526;2022-11-15T01:14:52;2.80;;;1.40;;
18804;SDS011;9530;48.930;9.526;2022-11-15T01:17:19;2.90;;;1.50;;
18804;SDS011;9530;48.930;9.526;2022-11-15T01:19:47;3.70;;;1.70;;
18804;SDS011;9530;48.930;9.526;2022-11-15T01:22:14;3.37;;;1.40;;
18804;SDS011;9530;48.930;9.526;2022-11-15T01:24:40;3.07;;;1.53;;
18804;SDS011;9530;48.930;9.526;2022-11-15T01:27:07;4.20;;;1.40;;
18804;SDS011;9530;48.930;9.526;2022-11-15T01:29:35;1.67;;;1.30;;
18804;SDS011;9530;48.930;9.526;2022-11-15T01:32:01;2.40;;;1.50;;
18804;SDS011;9530;48.930;9.526;2022-11-15T01:34:28;4.50;;;1.70;;
18804;SDS011;9530;48.930;9.526;2022-11-15T01:36:56;3.43;;;1.80;;
18804;SDS011;9530;48.930;9.526;2022-11-15T01:39:23;2.47;;;1.40;;
18804;SDS011;9530;48.930;9.526;2022-11-15T01:41:51;4.70;;;1.60;;
18804;SDS011;9530;48.930;9.526;2022-11-15T01:47:14;2.30;;;1.60;;
18804;SDS011;9530;48.930;9.526;2022-11-15T01:49:45;1.80;;;1.30;;
18804;SDS011;9530;48.930;9.526;2022-11-15T01:52:19;3.27;;;1.50;;
18804;SDS011;9530;48.930;9.526;2022-11-15T01:54:48;2.60;;;1.50;;
18804;SDS011;9530;48.930;9.526;2022-11-15T01:57:19;2.40;;;1.47;;
18804;SDS011;9530;48.930;9.526;2022-11-15T01:59:46;2.80;;;1.50;;
18804;SDS011;9530;48.930;9.526;2022-11-15T02:02:13;2.70;;;1.40;;
18804;SDS011;9530;48.930;9.526;2022-11-15T02:04:41;2.13;;;1.30;;
18804;SDS011;9530;48.930;9.526;2022-11-15T02:07:09;3.33;;;1.50;;
18804;SDS011;9530;48.930;9.526;2022-11-15T02:09:39;2.33;;;1.43;;
18804;SDS011;9530;48.930;9.526;2022-11-15T02:12:06;3.27;;;1.60;;
18804;SDS011;9530;48.930;9.526;2022-11-15T02:14:36;3.13;;;1.80;;
18804;SDS011;9530;48.930;9.526;2022-11-15T02:17:07;3.07;;;1.50;;
18804;SDS011;9530;48.930;9.526;2022-11-15T02:19:57;3.77;;;1.60;;
18804;SDS011;9530;48.930;9.526;2022-11-15T02:22:57;2.27;;;1.53;;
18804;SDS011;9530;48.930;9.526;2022-11-15T02:25:56;2.27;;;1.40;;
18804;SDS011;9530;48.930;9.526;2022-11-15T02:28:42;3.30;;;1.50;;
18804;SDS011;9530;48.930;9.526;2022-11-15T02:31:16;5.50;;;1.80;;
18804;SDS011;9530;48.930;9.526;2022-11-15T02:33:52;2.73;;;1.60;;
18804;SDS011;9530;48.930;9.526;2022-11-15T02:36:29;4.13;;;1.70;;
18804;SDS011;9530;48.930;9.526;2022-11-15T02:39:02;2.27;;;1.50;;
18804;SDS011;9530;48.930;9.526;2022-11-15T02:41:37;3.83;;;1.73;;
18804;SDS011;9530;48.930;9.526;2022-11-15T02:44:09;4.37;;;1.60;;
18804;SDS011;9530;48.930;9.526;2022-11-15T02:46:41;5.37;;;1.60;;
18804;SDS011;9530;48.930;9.526;2022-11-15T02:49:29;3.63;;;1.60;;
18804;SDS011;9530;48.930;9.526;2022-11-15T02:51:58;3.17;;;1.57;;
18804;SDS011;9530;48.930;9.526;2022-11-15T02:54:26;5.33;;;1.90;;
18804;SDS011;9530;48.930;9.526;2022-11-15T02:56:56;2.40;;;1.60;;
18804;SDS011;9530;48.930;9.526;2022-11-15T03:02:38;2.40;;;1.50;;
18804;SDS011;9530;48.930;9.526;2022-11-15T03:05:23;2.37;;;1.47;;
18804;SDS011;9530;48.930;9.526;2022-11-15T03:07:57;2.70;;;1.60;;
18804;SDS011;9530;48.930;9.526;2022-11-15T03:10:32;3.30;;;1.70;;
18804;SDS011;9530;48.930;9.526;2022-11-15T03:13:08;4.40;;;1.60;;
18804;SDS011;9530;48.930;9.526;2022-11-15T03:15:44;3.37;;;1.67;;
18804;SDS011;9530;48.930;9.526;2022-11-15T03:18:19;5.90;;;1.50;;
18804;SDS011;9530;48.930;9.526;2022-11-15T03:20:49;3.10;;;1.60;;
18804;SDS011;9530;48.930;9.526;2022-11-15T03:23:17;3.10;;;1.53;;
18804;SDS011;9530;48.930;9.526;2022-11-15T03:25:45;4.87;;;1.50;;
18804;SDS011;9530;48.930;9.526;2022-11-15T03:28:16;2.80;;;1.60;;
18804;SDS011;9530;48.930;9.526;2022-11-15T03:30:48;5.40;;;1.70;;
18804;SDS011;9530;48.930;9.526;2022-11-15T03:33:17;5.37;;;1.80;;
18804;SDS011;9530;48.930;9.526;2022-11-15T03:35:47;6.47;;;2.00;;
18804;SDS011;9530;48.930;9.526;2022-11-15T03:38:15;3.70;;;1.63;;
18804;SDS011;9530;48.930;9.526;2022-11-15T03:40:52;1.87;;;1.60;;
18804;SDS011;9530;48.930;9.526;2022-11-15T03:43:25;3.40;;;1.53;;
18804;SDS011;9530;48.930;9.526;2022-11-15T03:46:00;3.10;;;1.50;;
18804;SDS011;9530;48.930;9.526;2022-11-15T03:48:33;3.63;;;1.60;;
18804;SDS011;9530;48.930;9.526;2022-11-15T03:51:03;6.60;;;1.57;;
18804;SDS011;9530;48.930;9.526;2022-11-15T03:53:30;3.57;;;2.00;;
18804;SDS011;9530;48.930;9.526;2022-11-15T03:55:57;3.17;;;1.60;;
18804;SDS011;9530;48.930;9.526;2022-11-15T03:58:24;4.47;;;2.00;;
18804;SDS011;9530;48.930;9.526;2022-11-15T04:00:51;4.13;;;1.50;;
18804;SDS011;9530;48.930;9.526;2022-11-15T04:03:17;3.70;;;1.60;;
18804;SDS011;9530;48.930;9.526;2022-11-15T04:05:45;3.73;;;1.73;;
18804;SDS011;9530;48.930;9.526;2022-11-15T04:08:12;4.60;;;1.77;;
18804;SDS011;9530;48.930;9.526;2022-11-15T04:10:39;2.80;;;1.67;;
18804;SDS011;9530;48.930;9.526;2022-11-15T04:13:05;2.90;;;1.50;;
18804;SDS011;9530;48.930;9.526;2022-11-15T04:15:32;2.37;;;1.30;;
18804;SDS011;9530;48.930;9.526;2022-11-15T04:17:59;4.37;;;1.53;;
18804;SDS011;9530;48.930;9.526;2022-11-15T04:20:27;3.30;;;1.50;;
18804;SDS011;9530;48.930;9.526;2022-11-15T04:23:14;3.20;;;1.40;;
18804;SDS011;9530;48.930;9.526;2022-11-15T04:26:01;4.10;;;1.60;;
18804;SDS011;9530;48.930;9.526;2022-11-15T04:28:29;4.27;;;1.40;;
18804;SDS011;9530;48.930;9.526;2022-11-15T04:30:55;2.47;;;1.40;;
18804;SDS011;9530;48.930;9.526;2022-11-15T04:33:23;3.13;;;1.53;;
18804;SDS011;9530;48.930;9.526;2022-11-15T04:35:49;2.37;;;1.50;;
18804;SDS011;9530;48.930;9.526;2022-11-15T04:38:31;4.13;;;1.50;;
18804;SDS011;9530;48.930;9.526;2022-11-15T04:41:00;3.20;;;1.50;;
18804;SDS011;9530;48.930;9.526;2022-11-15T04:43:26;1.97;;;1.40;;
18804;SDS011;9530;48.930;9.526;2022-11-15T04:45:53;2.23;;;1.63;;
18804;SDS011;9530;48.930;9.526;2022-11-15T04:48:20;6.60;;;1.80;;
18804;SDS011;9530;48.930;9.526;2022-11-15T04:50:47;1.60;;;1.30;;
18804;SDS011;9530;48.930;9.526;2022-11-15T04:53:14;4.73;;;1.60;;
18804;SDS011;9530;48.930;9.526;2022-11-15T04:55:45;3.30;;;1.60;;
18804;SDS011;9530;48.930;9.526;2022-11-15T04:58:11;2.00;;;1.50;;
18804;SDS011;9530;48.930;9.526;2022-11-15T05:00:38;5.00;;;1.77;;
18804;SDS011;9530;48.930;9.526;2022-11-15T05:03:05;1.60;;;1.50;;
18804;SDS011;9530;48.930;9.526;2022-11-15T05:05:49;3.73;;;1.70;;
18804;SDS011;9530;48.930;9.526;2022-11-15T05:08:16;4.60;;;1.77;;
18804;SDS011;9530;48.930;9.526;2022-11-15T05:10:44;2.23;;;1.80;;
18804;SDS011;9530;48.930;9.526;2022-11-15T05:13:11;3.93;;;1.67;;
18804;SDS011;9530;48.930;9.526;2022-11-15T05:15:37;3.13;;;1.43;;
18804;SDS011;9530;48.930;9.526;2022-11-15T05:18:04;2.67;;;1.70;;
18804;SDS011;9530;48.930;9.526;2022-11-15T05:20:31;2.67;;;1.63;;
18804;SDS011;9530;48.930;9.526;2022-11-15T05:22:58;4.93;;;2.10;;
18804;SDS011;9530;48.930;9.526;2022-11-15T05:25:24;2.70;;;1.70;;
18804;SDS011;9530;48.930;9.526;2022-11-15T05:27:53;3.00;;;1.67;;
18804;SDS011;9530;48.930;9.526;2022-11-15T05:30:19;2.53;;;1.57;;
18804;SDS011;9530;48.930;9.526;2022-11-15T05:32:46;1.90;;;1.50;;
18804;SDS011;9530;48.930;9.526;2022-11-15T05:35:16;2.97;;;1.60;;
18804;SDS011;9530;48.930;9.526;2022-11-15T05:37:45;2.60;;;1.60;;
18804;SDS011;9530;48.930;9.526;2022-11-15T05:40:12;4.10;;;2.77;;
18804;SDS011;9530;48.930;9.526;2022-11-15T05:42:39;2.17;;;1.80;;
18804;SDS011;9530;48.930;9.526;2022-11-15T05:45:07;1.83;;;1.63;;
18804;SDS011;9530;48.930;9.526;2022-11-15T05:47:35;3.37;;;1.80;;
18804;SDS011;9530;48.930;9.526;2022-11-15T05:50:04;2.50;;;1.57;;
18804;SDS011;9530;48.930;9.526;2022-11-15T05:52:33;3.50;;;1.97;;
18804;SDS011;9530;48.930;9.526;2022-11-15T05:55:02;2.10;;;1.80;;
18804;SDS011;9530;48.930;9.526;2022-11-15T05:57:31;2.90;;;1.70;;
18804;SDS011;9530;48.930;9.526;2022-11-15T05:59:58;4.13;;;2.20;;
18804;SDS011;9530;48.930;9.526;2022-11-15T06:02:26;4.03;;;2.50;;
18804;SDS011;9530;48.930;9.526;2022-11-15T06:04:53;4.57;;;1.80;;
18804;SDS011;9530;48.930;9.526;2022-11-15T06:07:20;3.63;;;1.80;;
18804;SDS011;9530;48.930;9.526;2022-11-15T06:09:46;2.00;;;1.60;;
18804;SDS011;9530;48.930;9.526;2022-11-15T06:12:13;3.07;;;1.70;;
18804;SDS011;9530;48.930;9.526;2022-11-15T06:14:40;4.80;;;1.70;;
18804;SDS011;9530;48.930;9.526;2022-11-15T06:17:06;2.63;;;1.60;;
18804;SDS011;9530;48.930;9.526;2022-11-15T06:19:34;2.67;;;1.40;;
18804;SDS011;9530;48.930;9.526;2022-11-15T06:22:01;1.97;;;1.43;;
18804;SDS011;9530;48.930;9.526;2022-11-15T06:24:28;4.00;;;1.60;;
18804;SDS011;9530;48.930;9.526;2022-11-15T06:26:54;3.77;;;1.53;;
18804;SDS011;9530;48.930;9.526;2022-11-15T06:29:22;3.57;;;1.33;;
18804;SDS011;9530;48.930;9.526;2022-11-15T06:31:49;4.10;;;1.40;;
18804;SDS011;9530;48.930;9.526;2022-11-15T06:34:15;3.03;;;1.40;;
18804;SDS011;9530;48.930;9.526;2022-11-15T06:36:43;3.30;;;1.30;;
18804;SDS011;9530;48.930;9.526;2022-11-15T06:39:10;5.20;;;1.70;;
18804;SDS011;9530;48.930;9.526;2022-11-15T06:41:37;1.80;;;1.40;;
18804;SDS011;9530;48.930;9.526;2022-11-15T06:44:04;4.40;;;1.30;;
18804;SDS011;9530;48.930;9.526;2022-11-15T06:46:30;4.27;;;1.60;;
18804;SDS011;9530;48.930;9.526;2022-11-15T06:48:57;2.53;;;1.40;;
18804;SDS011;9530;48.930;9.526;2022-11-15T06:51:24;1.73;;;1.40;;
18804;SDS011;9530;48.930;9.526;2022-11-15T06:53:52;1.57;;;1.20;;
18804;SDS011;9530;48.930;9.526;2022-11-15T06:56:18;2.80;;;1.40;;
18804;SDS011;9530;48.930;9.526;2022-11-15T06:58:45;2.47;;;1.20;;
18804;SDS011;9530;48.930;9.526;2022-11-15T07:01:12;3.17;;;1.37;;
18804;SDS011;9530;48.930;9.526;2022-11-15T07:03:39;3.00;;;1.87;;
18804;SDS011;9530;48.930;9.526;2022-11-15T07:06:08;3.63;;;2.30;;
18804;SDS011;9530;48.930;9.526;2022-11-15T07:08:35;2.10;;;1.60;;
18804;SDS011;9530;48.930;9.526;2022-11-15T07:11:05;4.43;;;2.60;;
18804;SDS011;9530;48.930;9.526;2022-11-15T07:13:33;6.67;;;3.30;;
18804;SDS011;9530;48.930;9.526;2022-11-15T07:16:02;8.03;;;3.67;;
18804;SDS011;9530;48.930;9.526;2022-11-15T07:18:29;7.87;;;3.83;;
18804;SDS011;9530;48.930;9.526;2022-11-15T07:20:59;6.40;;;3.70;;
18804;SDS011;9530;48.930;9.526;2022-11-15T07:23:26;10.00;;;4.57;;
18804;SDS011;9530;48.930;9.526;2022-11-15T07:25:53;7.00;;;3.80;;
18804;SDS011;9530;48.930;9.526;2022-11-15T07:28:23;5.40;;;4.10;;
18804;SDS011;9530;48.930;9.526;2022-11-15T07:30:50;9.50;;;3.90;;
18804;SDS011;9530;48.930;9.526;2022-11-15T07:33:16;4.80;;;3.80;;
18804;SDS011;9530;48.930;9.526;2022-11-15T07:35:43;8.23;;;3.50;;
18804;SDS011;9530;48.930;9.526;2022-11-15T07:38:11;4.80;;;2.60;;
18804;SDS011;9530;48.930;9.526;2022-11-15T07:40:39;4.53;;;2.83;;
18804;SDS011;9530;48.930;9.526;2022-11-15T07:43:07;5.47;;;2.13;;
18804;SDS011;9530;48.930;9.526;2022-11-15T07:45:39;3.83;;;2.33;;
18804;SDS011;9530;48.930;9.526;2022-11-15T07:48:07;4.37;;;2.60;;
18804;SDS011;9530;48.930;9.526;2022-11-15T07:50:34;6.00;;;3.20;;
18804;SDS011;9530;48.930;9.526;2022-11-15T07:53:01;3.23;;;2.30;;
18804;SDS011;9530;48.930;9.526;2022-11-15T07:55:27;3.97;;;2.10;;
18804;SDS011;9530;48.930;9.526;2022-11-15T07:57:59;4.17;;;2.70;;
18804;SDS011;9530;48.930;9.526;2022-11-15T08:00:26;4.00;;;2.70;;
18804;SDS011;9530;48.930;9.526;2022-11-15T08:03:01;5.37;;;3.53;;
18804;SDS011;9530;48.930;9.526;2022-11-15T08:05:29;6.70;;;4.07;;
18804;SDS011;9530;48.930;9.526;2022-11-15T08:07:56;17.77;;;6.83;;
18804;SDS011;9530;48.930;9.526;2022-11-15T08:10:22;12.17;;;6.00;;
18804;SDS011;9530;48.930;9.526;2022-11-15T08:12:56;16.07;;;7.83;;
18804;SDS011;9530;48.930;9.526;2022-11-15T08:15:23;13.17;;;6.30;;
18804;SDS011;9530;48.930;9.526;2022-11-15T08:17:52;14.70;;;6.30;;
18804;SDS011;9530;48.930;9.526;2022-11-15T08:20:21;7.93;;;4.40;;
18804;SDS011;9530;48.930;9.526;2022-11-15T08:22:48;11.27;;;4.87;;
18804;SDS011;9530;48.930;9.526;2022-11-15T08:25:14;7.97;;;3.97;;
18804;SDS011;9530;48.930;9.526;2022-11-15T08:27:41;6.73;;;4.23;;
18804;SDS011;9530;48.930;9.526;2022-11-15T08:30:08;8.43;;;4.37;;
18804;SDS011;9530;48.930;9.526;2022-11-15T08:32:36;6.17;;;3.90;;
18804;SDS011;9530;48.930;9.526;2022-11-15T08:35:03;11.60;;;4.70;;
18804;SDS011;9530;48.930;9.526;2022-11-15T08:37:32;10.27;;;5.73;;
18804;SDS011;9530;48.930;9.526;2022-11-15T08:39:59;12.30;;;5.10;;
18804;SDS011;9530;48.930;9.526;2022-11-15T08:42:25;8.37;;;4.47;;
18804;SDS011;9530;48.930;9.526;2022-11-15T08:44:52;6.30;;;3.77;;
18804;SDS011;9530;48.930;9.526;2022-11-15T08:47:19;10.57;;;4.80;;
18804;SDS011;9530;48.930;9.526;2022-11-15T08:49:46;9.83;;;4.27;;
18804;SDS011;9530;48.930;9.526;2022-11-15T08:52:13;8.30;;;5.00;;
18804;SDS011;9530;48.930;9.526;2022-11-15T08:54:41;10.53;;;4.60;;
18804;SDS011;9530;48.930;9.526;2022-11-15T08:57:08;9.33;;;4.47;;
18804;SDS011;9530;48.930;9.526;2022-11-15T08:59:35;9.50;;;4.47;;
18804;SDS011;9530;48.930;9.526;2022-11-15T09:02:02;6.57;;;4.17;;
18804;SDS011;9530;48.930;9.526;2022-11-15T09:04:29;7.97;;;4.03;;
18804;SDS011;9530;48.930;9.526;2022-11-15T09:06:56;8.30;;;3.60;;
18804;SDS011;9530;48.930;9.526;2022-11-15T09:09:22;15.00;;;7.33;;
18804;SDS011;9530;48.930;9.526;2022-11-15T09:11:51;11.00;;;6.87;;
18804;SDS011;9530;48.930;9.526;2022-11-15T09:14:17;17.47;;;9.30;;
18804;SDS011;9530;48.930;9.526;2022-11-15T09:16:44;21.40;;;10.93;;
18804;SDS011;9530;48.930;9.526;2022-11-15T09:19:11;11.73;;;6.43;;
18804;SDS011;9530;48.930;9.526;2022-11-15T09:21:39;7.33;;;4.90;;
18804;SDS011;9530;48.930;9.526;2022-11-15T09:24:06;8.43;;;5.13;;
18804;SDS011;9530;48.930;9.526;2022-11-15T09:26:33;7.63;;;4.30;;
18804;SDS011;9530;48.930;9.526;2022-11-15T09:29:01;9.30;;;4.50;;
18804;SDS011;9530;48.930;9.526;2022-11-15T09:31:28;5.87;;;4.43;;
18804;SDS011;9530;48.930;9.526;2022-11-15T09:33:55;7.00;;;4.77;;
18804;SDS011;9530;48.930;9.526;2022-11-15T09:36:22;5.43;;;4.00;;
18804;SDS011;9530;48.930;9.526;2022-11-15T09:38:48;6.70;;;4.40;;
18804;SDS011;9530;48.930;9.526;2022-11-15T09:41:21;6.37;;;4.20;;
18804;SDS011;9530;48.930;9.526;2022-11-15T09:44:15;6.43;;;4.47;;
18804;SDS011;9530;48.930;9.526;2022-11-15T09:46:55;7.50;;;4.40;;
18804;SDS011;9530;48.930;9.526;2022-11-15T09:49:26;5.50;;;4.20;;
18804;SDS011;9530;48.930;9.526;2022-11-15T09:51:55;6.50;;;3.83;;
18804;SDS011;9530;48.930;9.526;2022-11-15T09:54:27;6.90;;;4.03;;
18804;SDS011;9530;48.930;9.526;2022-11-15T09:56:56;8.43;;;3.80;;
18804;SDS011;9530;48.930;9.526;2022-11-15T09:59:36;6.37;;;3.83;;
18804;SDS011;9530;48.930;9.526;2022-11-15T10:02:12;7.47;;;4.13;;
18804;SDS011;9530;48.930;9.526;2022-11-15T10:04:52;7.70;;;4.97;;
18804;SDS011;9530;48.930;9.526;2022-11-15T10:07:20;12.33;;;6.47;;
18804;SDS011;9530;48.930;9.526;2022-11-15T10:09:53;12.97;;;7.43;;
18804;SDS011;9530;48.930;9.526;2022-11-15T10:12:23;7.43;;;4.53;;
18804;SDS011;9530;48.930;9.526;2022-11-15T10:14:55;6.27;;;3.60;;
18804;SDS011;9530;48.930;9.526;2022-11-15T10:17:33;7.43;;;3.90;;
18804;SDS011;9530;48.930;9.526;2022-11-15T10:20:17;5.57;;;3.73;;
18804;SDS011;9530;48.930;9.526;2022-11-15T10:22:48;6.70;;;3.77;;
18804;SDS011;9530;48.930;9.526;2022-11-15T10:25:18;6.17;;;3.43;;
18804;SDS011;9530;48.930;9.526;2022-11-15T10:27:51;4.80;;;2.97;;
18804;SDS011;9530;48.930;9.526;2022-11-15T10:30:22;4.47;;;2.80;;
18804;SDS011;9530;48.930;9.526;2022-11-15T10:32:57;4.80;;;2.73;;
18804;SDS011;9530;48.930;9.526;2022-11-15T10:35:27;5.57;;;3.00;;
18804;SDS011;9530;48.930;9.526;2022-11-15T10:38:04;4.23;;;3.10;;
18804;SDS011;9530;48.930;9.526;2022-11-15T10:40:32;4.40;;;3.10;;
18804;SDS011;9530;48.930;9.526;2022-11-15T10:45:44;4.93;;;3.00;;
18804;SDS011;9530;48.930;9.526;2022-11-15T10:48:19;5.30;;;3.10;;
18804;SDS011;9530;48.930;9.526;2022-11-15T10:50:51;5.13;;;2.50;;
18804;SDS011;9530;48.930;9.526;2022-11-15T10:53:21;3.93;;;2.30;;
18804;SDS011;9530;48.930;9.526;2022-11-15T10:55:51;3.20;;;2.20;;
18804;SDS011;9530;48.930;9.526;2022-11-15T10:58:20;2.97;;;2.43;;
18804;SDS011;9530;48.930;9.526;2022-11-15T11:00:57;6.57;;;2.30;;
18804;SDS011;9530;48.930;9.526;2022-11-15T11:03:36;4.80;;;2.27;;
18804;SDS011;9530;48.930;9.526;2022-11-15T11:06:08;4.77;;;2.37;;
18804;SDS011;9530;48.930;9.526;2022-11-15T11:08:37;5.03;;;2.40;;
18804;SDS011;9530;48.930;9.526;2022-11-15T11:11:04;3.60;;;2.23;;
18804;SDS011;9530;48.930;9.526;2022-11-15T11:13:32;7.23;;;2.40;;
18804;SDS011;9530;48.930;9.526;2022-11-15T11:16:21;4.33;;;2.23;;
18804;SDS011;9530;48.930;9.526;2022-11-15T11:19:10;3.80;;;2.60;;
18804;SDS011;9530;48.930;9.526;2022-11-15T11:21:46;4.13;;;2.10;;
18804;SDS011;9530;48.930;9.526;2022-11-15T11:24:22;5.63;;;2.83;;
18804;SDS011;9530;48.930;9.526;2022-11-15T11:26:59;4.53;;;2.70;;
18804;SDS011;9530;48.930;9.526;2022-11-15T11:29:41;4.60;;;2.40;;
18804;SDS011;9530;48.930;9.526;2022-11-15T11:32:28;3.10;;;1.97;;
18804;SDS011;9530;48.930;9.526;2022-11-15T11:35:08;3.53;;;2.00;;
18804;SDS011;9530;48.930;9.526;2022-11-15T11:37:40;3.27;;;2.00;;
18804;SDS011;9530;48.930;9.526;2022-11-15T11:40:16;3.27;;;1.80;;
18804;SDS011;9530;48.930;9.526;2022-11-15T11:42:54;4.33;;;2.47;;
18804;SDS011;9530;48.930;9.526;2022-11-15T11:45:40;7.20;;;3.30;;
18804;SDS011;9530;48.930;9.526;2022-11-15T11:48:23;6.27;;;3.23;;
18804;SDS011;9530;48.930;9.526;2022-11-15T11:51:04;5.60;;;3.80;;
18804;SDS011;9530;48.930;9.526;2022-11-15T11:53:37;6.37;;;3.37;;
18804;SDS011;9530;48.930;9.526;2022-11-15T11:56:22;6.37;;;3.07;;
18804;SDS011;9530;48.930;9.526;2022-11-15T11:58:52;5.93;;;3.13;;
18804;SDS011;9530;48.930;9.526;2022-11-15T12:01:22;5.63;;;2.97;;
18804;SDS011;9530;48.930;9.526;2022-11-15T12:03:53;6.10;;;2.80;;
18804;SDS011;9530;48.930;9.526;2022-11-15T12:06:26;8.77;;;2.70;;
18804;SDS011;9530;48.930;9.526;2022-11-15T12:08:58;3.20;;;1.97;;
18804;SDS011;9530;48.930;9.526;2022-11-15T12:11:29;4.07;;;1.80;;
18804;SDS011;9530;48.930;9.526;2022-11-15T12:14:05;3.57;;;1.93;;
18804;SDS011;9530;48.930;9.526;2022-11-15T12:16:38;3.53;;;1.80;;
18804;SDS011;9530;48.930;9.526;2022-11-15T12:19:09;3.27;;;2.07;;
18804;SDS011;9530;48.930;9.526;2022-11-15T12:21:37;4.17;;;1.97;;
18804;SDS011;9530;48.930;9.526;2022-11-15T12:24:12;5.60;;;2.27;;
18804;SDS011;9530;48.930;9.526;2022-11-15T12:26:45;3.83;;;2.00;;
18804;SDS011;9530;48.930;9.526;2022-11-15T12:29:16;2.93;;;1.97;;
18804;SDS011;9530;48.930;9.526;2022-11-15T12:31:48;3.20;;;1.80;;
18804;SDS011;9530;48.930;9.526;2022-11-15T12:34:34;2.30;;;1.57;;
18804;SDS011;9530;48.930;9.526;2022-11-15T12:40:05;2.73;;;1.40;;
18804;SDS011;9530;48.930;9.526;2022-11-15T12:43:03;4.20;;;1.70;;
18804;SDS011;9530;48.930;9.526;2022-11-15T12:45:37;2.50;;;1.57;;
18804;SDS011;9530;48.930;9.526;2022-11-15T12:51:15;2.23;;;1.50;;
18804;SDS011;9530;48.930;9.526;2022-11-15T12:53:42;2.97;;;1.43;;
18804;SDS011;9530;48.930;9.526;2022-11-15T12:56:19;3.23;;;1.80;;
18804;SDS011;9530;48.930;9.526;2022-11-15T12:58:48;3.33;;;1.50;;
18804;SDS011;9530;48.930;9.526;2022-11-15T13:04:22;2.67;;;1.53;;
18804;SDS011;9530;48.930;9.526;2022-11-15T13:06:53;3.07;;;1.60;;
18804;SDS011;9530;48.930;9.526;2022-11-15T13:15:33;4.97;;;1.60;;
18804;SDS011;9530;48.930;9.526;2022-11-15T13:18:26;4.13;;;1.80;;
18804;SDS011;9530;48.930;9.526;2022-11-15T13:20:55;3.63;;;1.30;;
18804;SDS011;9530;48.930;9.526;2022-11-15T13:23:23;2.77;;;1.60;;
18804;SDS011;9530;48.930;9.526;2022-11-15T13:25:57;2.83;;;1.60;;
18804;SDS011;9530;48.930;9.526;2022-11-15T13:28:43;5.20;;;1.60;;
18804;SDS011;9530;48.930;9.526;2022-11-15T13:31:21;2.17;;;1.57;;
18804;SDS011;9530;48.930;9.526;2022-11-15T13:33:51;5.53;;;1.40;;
18804;SDS011;9530;48.930;9.526;2022-11-15T13:36:20;4.30;;;1.60;;
18804;SDS011;9530;48.930;9.526;2022-11-15T13:38:55;3.37;;;1.30;;
18804;SDS011;9530;48.930;9.526;2022-11-15T13:41:25;3.13;;;1.50;;
18804;SDS011;9530;48.930;9.526;2022-11-15T13:43:53;7.03;;;1.50;;
18804;SDS011;9530;48.930;9.526;2022-11-15T13:46:22;2.57;;;1.30;;
18804;SDS011;9530;48.930;9.526;2022-11-15T13:48:54;4.80;;;1.50;;
18804;SDS011;9530;48.930;9.526;2022-11-15T13:51:24;2.73;;;1.50;;
18804;SDS011;9530;48.930;9.526;2022-11-15T13:53:58;2.20;;;1.33;;
18804;SDS011;9530;48.930;9.526;2022-11-15T13:56:26;2.67;;;1.70;;
18804;SDS011;9530;48.930;9.526;2022-11-15T13:58:54;5.27;;;1.67;;
18804;SDS011;9530;48.930;9.526;2022-11-15T14:01:21;2.70;;;1.60;;
18804;SDS011;9530;48.930;9.526;2022-11-15T14:03:53;2.33;;;1.60;;
18804;SDS011;9530;48.930;9.526;2022-11-15T14:06:23;2.77;;;1.67;;
18804;SDS011;9530;48.930;9.526;2022-11-15T14:09:16;2.77;;;1.37;;
18804;SDS011;9530;48.930;9.526;2022-11-15T14:11:59;1.50;;;1.30;;
18804;SDS011;9530;48.930;9.526;2022-11-15T14:14:27;3.33;;;1.60;;
18804;SDS011;9530;48.930;9.526;2022-11-15T14:16:55;2.20;;;1.60;;
18804;SDS011;9530;48.930;9.526;2022-11-15T14:19:34;3.30;;;1.77;;
18804;SDS011;9530;48.930;9.526;2022-11-15T14:22:12;3.97;;;2.00;;
18804;SDS011;9530;48.930;9.526;2022-11-15T14:24:43;2.90;;;1.57;;
18804;SDS011;9530;48.930;9.526;2022-11-15T14:27:18;3.17;;;1.63;;
18804;SDS011;9530;48.930;9.526;2022-11-15T14:29:47;2.77;;;2.00;;
18804;SDS011;9530;48.930;9.526;2022-11-15T14:32:15;5.10;;;1.73;;
18804;SDS011;9530;48.930;9.526;2022-11-15T14:34:44;5.97;;;2.20;;
18804;SDS011;9530;48.930;9.526;2022-11-15T14:37:21;4.17;;;1.87;;
18804;SDS011;9530;48.930;9.526;2022-11-15T14:39:51;4.00;;;1.83;;
18804;SDS011;9530;48.930;9.526;2022-11-15T14:42:19;3.57;;;2.00;;
18804;SDS011;9530;48.930;9.526;2022-11-15T14:44:47;2.30;;;1.57;;
18804;SDS011;9530;48.930;9.526;2022-11-15T14:47:14;3.23;;;1.70;;
18804;SDS011;9530;48.930;9.526;2022-11-15T14:49:41;2.83;;;1.87;;
18804;SDS011;9530;48.930;9.526;2022-11-15T14:52:16;2.87;;;1.70;;
18804;SDS011;9530;48.930;9.526;2022-11-15T14:54:54;2.87;;;1.50;;
18804;SDS011;9530;48.930;9.526;2022-11-15T14:57:21;3.30;;;1.40;;
18804;SDS011;9530;48.930;9.526;2022-11-15T14:59:48;5.10;;;1.60;;
18804;SDS011;9530;48.930;9.526;2022-11-15T15:02:16;2.47;;;1.37;;
18804;SDS011;9530;48.930;9.526;2022-11-15T15:04:44;2.70;;;1.60;;
18804;SDS011;9530;48.930;9.526;2022-11-15T15:07:12;1.90;;;1.50;;
18804;SDS011;9530;48.930;9.526;2022-11-15T15:09:38;2.30;;;1.53;;
18804;SDS011;9530;48.930;9.526;2022-11-15T15:12:09;3.50;;;1.50;;
18804;SDS011;9530;48.930;9.526;2022-11-15T15:14:41;4.50;;;1.70;;
18804;SDS011;9530;48.930;9.526;2022-11-15T15:17:07;2.63;;;1.57;;
18804;SDS011;9530;48.930;9.526;2022-11-15T15:19:35;4.77;;;1.50;;
18804;SDS011;9530;48.930;9.526;2022-11-15T15:22:01;3.80;;;1.50;;
18804;SDS011;9530;48.930;9.526;2022-11-15T15:24:28;2.37;;;1.83;;
18804;SDS011;9530;48.930;9.526;2022-11-15T15:26:55;3.93;;;1.87;;
18804;SDS011;9530;48.930;9.526;2022-11-15T15:29:23;5.07;;;1.90;;
18804;SDS011;9530;48.930;9.526;2022-11-15T15:31:50;3.97;;;1.87;;
18804;SDS011;9530;48.930;9.526;2022-11-15T15:34:16;4.40;;;1.57;;
18804;SDS011;9530;48.930;9.526;2022-11-15T15:36:43;1.90;;;1.50;;
18804;SDS011;9530;48.930;9.526;2022-11-15T15:39:10;2.57;;;1.73;;
18804;SDS011;9530;48.930;9.526;2022-11-15T15:41:37;2.97;;;1.73;;
18804;SDS011;9530;48.930;9.526;2022-11-15T15:44:03;2.23;;;1.50;;